sensor_id;sensor_type;location;lat;lon;timestamp;P1;durP1;ratioP1;P2;durP2;ratioP2
15931;SDS011;8065;49.520;11.284;2023-08-07T00:00:15;0.47;;;0.43;;
15931;SDS011;8065;49.520;11.284;2023-08-07T00:02:43;0.50;;;0.50;;
15931;SDS011;8065;49.520;11.284;2023-08-07T00:05:12;0.73;;;0.37;;
15931;SDS011;8065;49.520;11.284;2023-08-07T00:07:41;0.60;;;0.60;;
15931;SDS011;8065;49.520;11.284;2023-08-07T00:10:10;0.40;;;0.40;;
15931;SDS011;8065;49.520;11.284;2023-08-07T00:12:38;0.53;;;0.50;;
15931;SDS011;8065;49.520;11.284;2023-08-07T00:15:08;0.40;;;0.40;;
15931;SDS011;8065;49.520;11.284;2023-08-07T00:17:39;0.40;;;0.40;;
15931;SDS011;8065;49.520;11.284;2023-08-07T00:20:08;0.30;;;0.30;;
15931;SDS011;8065;49.520;11.284;2023-08-07T00:22:36;0.40;;;0.40;;
15931;SDS011;8065;49.520;11.284;2023-08-07T00:25:05;0.40;;;0.40;;
15931;SDS011;8065;49.520;11.284;2023-08-07T00:27:34;0.50;;;0.30;;
15931;SDS011;8065;49.520;11.284;2023-08-07T00:30:02;0.30;;;0.30;;
15931;SDS011;8065;49.520;11.284;2023-08-07T00:32:31;0.20;;;0.20;;
15931;SDS011;8065;49.520;11.284;2023-08-07T00:35:01;0.43;;;0.23;;
15931;SDS011;8065;49.520;11.284;2023-08-07T00:37:30;0.30;;;0.30;;
15931;SDS011;8065;49.520;11.284;2023-08-07T00:39:59;0.30;;;0.30;;
15931;SDS011;8065;49.520;11.284;2023-08-07T00:42:27;0.27;;;0.27;;
15931;SDS011;8065;49.520;11.284;2023-08-07T00:44:55;0.47;;;0.30;;
15931;SDS011;8065;49.520;11.284;2023-08-07T00:47:24;0.20;;;0.20;;
15931;SDS011;8065;49.520;11.284;2023-08-07T00:49:53;0.40;;;0.30;;
15931;SDS011;8065;49.520;11.284;2023-08-07T00:52:26;0.40;;;0.20;;
15931;SDS011;8065;49.520;11.284;2023-08-07T00:54:54;1.30;;;0.40;;
15931;SDS011;8065;49.520;11.284;2023-08-07T00:57:22;3.00;;;0.50;;
15931;SDS011;8065;49.520;11.284;2023-08-07T00:59:51;0.23;;;0.23;;
15931;SDS011;8065;49.520;11.284;2023-08-07T01:02:20;1.13;;;0.30;;
15931;SDS011;8065;49.520;11.284;2023-08-07T01:04:48;0.43;;;0.30;;
15931;SDS011;8065;49.520;11.284;2023-08-07T01:07:18;0.20;;;0.20;;
15931;SDS011;8065;49.520;11.284;2023-08-07T01:09:48;0.43;;;0.30;;
15931;SDS011;8065;49.520;11.284;2023-08-07T01:12:18;0.30;;;0.30;;
15931;SDS011;8065;49.520;11.284;2023-08-07T01:14:49;0.20;;;0.20;;
15931;SDS011;8065;49.520;11.284;2023-08-07T01:17:22;0.20;;;0.20;;
15931;SDS011;8065;49.520;11.284;2023-08-07T01:19:51;0.40;;;0.17;;
15931;SDS011;8065;49.520;11.284;2023-08-07T01:22:22;1.13;;;0.20;;
15931;SDS011;8065;49.520;11.284;2023-08-07T01:24:51;0.87;;;0.23;;
15931;SDS011;8065;49.520;11.284;2023-08-07T01:27:22;0.63;;;0.27;;
15931;SDS011;8065;49.520;11.284;2023-08-07T01:30:03;0.23;;;0.23;;
15931;SDS011;8065;49.520;11.284;2023-08-07T01:32:41;0.40;;;0.40;;
15931;SDS011;8065;49.520;11.284;2023-08-07T01:35:16;0.20;;;0.20;;
15931;SDS011;8065;49.520;11.284;2023-08-07T01:37:47;0.40;;;0.20;;
15931;SDS011;8065;49.520;11.284;2023-08-07T01:40:17;0.40;;;0.40;;
15931;SDS011;8065;49.520;11.284;2023-08-07T01:42:48;0.30;;;0.30;;
15931;SDS011;8065;49.520;11.284;2023-08-07T01:45:22;0.33;;;0.33;;
15931;SDS011;8065;49.520;11.284;2023-08-07T01:47:51;0.30;;;0.30;;
15931;SDS011;8065;49.520;11.284;2023-08-07T01:50:20;0.30;;;0.30;;
15931;SDS011;8065;49.520;11.284;2023-08-07T01:52:51;0.40;;;0.40;;
15931;SDS011;8065;49.520;11.284;2023-08-07T01:55:20;0.97;;;0.40;;
15931;SDS011;8065;49.520;11.284;2023-08-07T01:57:49;0.20;;;0.20;;
15931;SDS011;8065;49.520;11.284;2023-08-07T02:00:17;0.30;;;0.30;;
15931;SDS011;8065;49.520;11.284;2023-08-07T02:02:46;0.20;;;0.20;;
15931;SDS011;8065;49.520;11.284;2023-08-07T02:05:14;0.47;;;0.47;;
15931;SDS011;8065;49.520;11.284;2023-08-07T02:07:43;0.37;;;0.30;;
15931;SDS011;8065;49.520;11.284;2023-08-07T02:10:14;0.63;;;0.40;;
15931;SDS011;8065;49.520;11.284;2023-08-07T02:12:43;0.60;;;0.57;;
15931;SDS011;8065;49.520;11.284;2023-08-07T02:15:11;0.67;;;0.50;;
15931;SDS011;8065;49.520;11.284;2023-08-07T02:17:39;0.30;;;0.30;;
15931;SDS011;8065;49.520;11.284;2023-08-07T02:20:08;0.23;;;0.23;;
15931;SDS011;8065;49.520;11.284;2023-08-07T02:22:37;0.60;;;0.40;;
15931;SDS011;8065;49.520;11.284;2023-08-07T02:25:06;0.30;;;0.30;;
15931;SDS011;8065;49.520;11.284;2023-08-07T02:27:37;1.17;;;0.30;;
15931;SDS011;8065;49.520;11.284;2023-08-07T02:30:06;0.40;;;0.40;;
15931;SDS011;8065;49.520;11.284;2023-08-07T02:32:35;0.47;;;0.43;;
15931;SDS011;8065;49.520;11.284;2023-08-07T02:35:03;0.40;;;0.30;;
15931;SDS011;8065;49.520;11.284;2023-08-07T02:37:33;0.30;;;0.30;;
15931;SDS011;8065;49.520;11.284;2023-08-07T02:40:01;0.40;;;0.30;;
15931;SDS011;8065;49.520;11.284;2023-08-07T02:42:30;0.80;;;0.30;;
15931;SDS011;8065;49.520;11.284;2023-08-07T02:45:01;0.40;;;0.40;;
15931;SDS011;8065;49.520;11.284;2023-08-07T02:47:29;0.40;;;0.37;;
15931;SDS011;8065;49.520;11.284;2023-08-07T02:49:58;0.73;;;0.53;;
15931;SDS011;8065;49.520;11.284;2023-08-07T02:52:26;1.03;;;0.50;;
15931;SDS011;8065;49.520;11.284;2023-08-07T02:54:54;0.60;;;0.50;;
15931;SDS011;8065;49.520;11.284;2023-08-07T02:57:23;0.33;;;0.33;;
15931;SDS011;8065;49.520;11.284;2023-08-07T02:59:51;0.40;;;0.40;;
15931;SDS011;8065;49.520;11.284;2023-08-07T03:02:22;0.60;;;0.60;;
15931;SDS011;8065;49.520;11.284;2023-08-07T03:04:50;1.27;;;0.50;;
15931;SDS011;8065;49.520;11.284;2023-08-07T03:07:19;0.67;;;0.50;;
15931;SDS011;8065;49.520;11.284;2023-08-07T03:09:47;0.43;;;0.43;;
15931;SDS011;8065;49.520;11.284;2023-08-07T03:12:15;0.40;;;0.40;;
15931;SDS011;8065;49.520;11.284;2023-08-07T03:14:44;0.30;;;0.30;;
15931;SDS011;8065;49.520;11.284;2023-08-07T03:17:12;0.60;;;0.50;;
15931;SDS011;8065;49.520;11.284;2023-08-07T03:19:43;0.83;;;0.60;;
15931;SDS011;8065;49.520;11.284;2023-08-07T03:22:11;0.60;;;0.60;;
15931;SDS011;8065;49.520;11.284;2023-08-07T03:24:40;2.23;;;0.63;;
15931;SDS011;8065;49.520;11.284;2023-08-07T03:27:08;0.50;;;0.50;;
15931;SDS011;8065;49.520;11.284;2023-08-07T03:29:36;0.73;;;0.60;;
15931;SDS011;8065;49.520;11.284;2023-08-07T03:32:05;0.40;;;0.40;;
15931;SDS011;8065;49.520;11.284;2023-08-07T03:34:34;0.80;;;0.57;;
15931;SDS011;8065;49.520;11.284;2023-08-07T03:37:05;0.50;;;0.50;;
15931;SDS011;8065;49.520;11.284;2023-08-07T03:39:33;0.60;;;0.50;;
15931;SDS011;8065;49.520;11.284;2023-08-07T03:42:01;0.97;;;0.77;;
15931;SDS011;8065;49.520;11.284;2023-08-07T03:44:30;0.83;;;0.60;;
15931;SDS011;8065;49.520;11.284;2023-08-07T03:46:59;0.80;;;0.60;;
15931;SDS011;8065;49.520;11.284;2023-08-07T03:49:28;1.13;;;0.97;;
15931;SDS011;8065;49.520;11.284;2023-08-07T03:51:56;1.03;;;0.80;;
15931;SDS011;8065;49.520;11.284;2023-08-07T03:54:27;0.70;;;0.70;;
15931;SDS011;8065;49.520;11.284;2023-08-07T03:56:55;0.80;;;0.80;;
15931;SDS011;8065;49.520;11.284;2023-08-07T03:59:23;1.20;;;0.70;;
15931;SDS011;8065;49.520;11.284;2023-08-07T04:01:52;0.80;;;0.80;;
15931;SDS011;8065;49.520;11.284;2023-08-07T04:04:20;0.70;;;0.70;;
15931;SDS011;8065;49.520;11.284;2023-08-07T04:06:48;1.23;;;0.90;;
15931;SDS011;8065;49.520;11.284;2023-08-07T04:09:17;1.40;;;1.00;;
15931;SDS011;8065;49.520;11.284;2023-08-07T04:11:47;2.37;;;1.03;;
15931;SDS011;8065;49.520;11.284;2023-08-07T04:14:16;1.40;;;0.90;;
15931;SDS011;8065;49.520;11.284;2023-08-07T04:16:44;1.97;;;1.17;;
15931;SDS011;8065;49.520;11.284;2023-08-07T04:19:12;1.80;;;0.90;;
15931;SDS011;8065;49.520;11.284;2023-08-07T04:21:41;1.87;;;1.23;;
15931;SDS011;8065;49.520;11.284;2023-08-07T04:24:09;1.10;;;1.00;;
15931;SDS011;8065;49.520;11.284;2023-08-07T04:26:38;2.50;;;1.27;;
15931;SDS011;8065;49.520;11.284;2023-08-07T04:29:09;2.40;;;1.20;;
15931;SDS011;8065;49.520;11.284;2023-08-07T04:31:37;1.17;;;1.07;;
15931;SDS011;8065;49.520;11.284;2023-08-07T04:34:05;0.90;;;0.90;;
15931;SDS011;8065;49.520;11.284;2023-08-07T04:36:33;1.77;;;1.30;;
15931;SDS011;8065;49.520;11.284;2023-08-07T04:39:02;1.40;;;1.23;;
15931;SDS011;8065;49.520;11.284;2023-08-07T04:41:30;1.43;;;1.10;;
15931;SDS011;8065;49.520;11.284;2023-08-07T04:43:59;1.90;;;1.13;;
15931;SDS011;8065;49.520;11.284;2023-08-07T04:46:30;1.00;;;0.90;;
15931;SDS011;8065;49.520;11.284;2023-08-07T04:48:58;1.50;;;1.20;;
15931;SDS011;8065;49.520;11.284;2023-08-07T04:51:27;3.67;;;1.40;;
15931;SDS011;8065;49.520;11.284;2023-08-07T04:53:56;2.60;;;1.30;;
15931;SDS011;8065;49.520;11.284;2023-08-07T04:56:24;3.00;;;1.17;;
15931;SDS011;8065;49.520;11.284;2023-08-07T04:58:53;1.80;;;1.00;;
15931;SDS011;8065;49.520;11.284;2023-08-07T05:01:21;3.03;;;1.30;;
15931;SDS011;8065;49.520;11.284;2023-08-07T05:03:52;3.93;;;1.40;;
15931;SDS011;8065;49.520;11.284;2023-08-07T05:06:20;3.13;;;1.50;;
15931;SDS011;8065;49.520;11.284;2023-08-07T05:08:48;1.43;;;1.30;;
15931;SDS011;8065;49.520;11.284;2023-08-07T05:11:16;1.20;;;1.10;;
15931;SDS011;8065;49.520;11.284;2023-08-07T05:13:45;2.50;;;1.40;;
15931;SDS011;8065;49.520;11.284;2023-08-07T05:16:13;2.27;;;1.40;;
15931;SDS011;8065;49.520;11.284;2023-08-07T05:18:44;3.93;;;1.30;;
15931;SDS011;8065;49.520;11.284;2023-08-07T05:21:14;1.57;;;1.30;;
15931;SDS011;8065;49.520;11.284;2023-08-07T05:23:43;2.07;;;1.50;;
15931;SDS011;8065;49.520;11.284;2023-08-07T05:26:12;2.23;;;1.70;;
15931;SDS011;8065;49.520;11.284;2023-08-07T05:28:41;3.00;;;1.37;;
15931;SDS011;8065;49.520;11.284;2023-08-07T05:31:09;2.47;;;1.50;;
15931;SDS011;8065;49.520;11.284;2023-08-07T05:33:37;2.93;;;1.30;;
15931;SDS011;8065;49.520;11.284;2023-08-07T05:36:06;2.23;;;1.60;;
15931;SDS011;8065;49.520;11.284;2023-08-07T05:38:37;1.67;;;1.40;;
15931;SDS011;8065;49.520;11.284;2023-08-07T05:41:05;3.47;;;2.00;;
15931;SDS011;8065;49.520;11.284;2023-08-07T05:43:33;4.60;;;1.97;;
15931;SDS011;8065;49.520;11.284;2023-08-07T05:46:01;3.47;;;1.87;;
15931;SDS011;8065;49.520;11.284;2023-08-07T05:48:30;4.90;;;1.80;;
15931;SDS011;8065;49.520;11.284;2023-08-07T05:50:58;3.87;;;1.57;;
15931;SDS011;8065;49.520;11.284;2023-08-07T05:53:26;3.53;;;1.60;;
15931;SDS011;8065;49.520;11.284;2023-08-07T05:55:57;1.73;;;1.40;;
15931;SDS011;8065;49.520;11.284;2023-08-07T05:58:25;2.87;;;1.80;;
15931;SDS011;8065;49.520;11.284;2023-08-07T06:00:53;3.13;;;1.87;;
15931;SDS011;8065;49.520;11.284;2023-08-07T06:03:22;3.23;;;1.83;;
15931;SDS011;8065;49.520;11.284;2023-08-07T06:05:50;3.23;;;1.77;;
15931;SDS011;8065;49.520;11.284;2023-08-07T06:08:18;3.33;;;1.80;;
15931;SDS011;8065;49.520;11.284;2023-08-07T06:10:47;1.93;;;1.80;;
15931;SDS011;8065;49.520;11.284;2023-08-07T06:13:17;3.03;;;1.80;;
15931;SDS011;8065;49.520;11.284;2023-08-07T06:15:46;3.67;;;1.77;;
15931;SDS011;8065;49.520;11.284;2023-08-07T06:18:14;3.63;;;1.63;;
15931;SDS011;8065;49.520;11.284;2023-08-07T06:20:42;2.80;;;1.60;;
15931;SDS011;8065;49.520;11.284;2023-08-07T06:23:11;3.60;;;1.73;;
15931;SDS011;8065;49.520;11.284;2023-08-07T06:25:39;1.50;;;1.40;;
15931;SDS011;8065;49.520;11.284;2023-08-07T06:28:08;2.53;;;1.67;;
15931;SDS011;8065;49.520;11.284;2023-08-07T06:30:38;3.20;;;1.90;;
15931;SDS011;8065;49.520;11.284;2023-08-07T06:33:07;1.90;;;1.70;;
15931;SDS011;8065;49.520;11.284;2023-08-07T06:35:37;2.27;;;1.60;;
15931;SDS011;8065;49.520;11.284;2023-08-07T06:38:07;1.83;;;1.50;;
15931;SDS011;8065;49.520;11.284;2023-08-07T06:40:36;2.43;;;1.70;;
15931;SDS011;8065;49.520;11.284;2023-08-07T06:43:05;3.07;;;1.80;;
15931;SDS011;8065;49.520;11.284;2023-08-07T06:45:33;3.87;;;1.60;;
15931;SDS011;8065;49.520;11.284;2023-08-07T06:48:04;4.20;;;1.87;;
15931;SDS011;8065;49.520;11.284;2023-08-07T06:50:32;3.57;;;1.83;;
15931;SDS011;8065;49.520;11.284;2023-08-07T06:53:00;4.30;;;1.70;;
15931;SDS011;8065;49.520;11.284;2023-08-07T06:55:29;4.27;;;2.23;;
15931;SDS011;8065;49.520;11.284;2023-08-07T06:57:58;2.53;;;1.80;;
15931;SDS011;8065;49.520;11.284;2023-08-07T07:00:26;2.53;;;2.13;;
15931;SDS011;8065;49.520;11.284;2023-08-07T07:02:54;3.87;;;2.03;;
15931;SDS011;8065;49.520;11.284;2023-08-07T07:05:25;3.67;;;1.77;;
15931;SDS011;8065;49.520;11.284;2023-08-07T07:07:55;3.80;;;1.93;;
15931;SDS011;8065;49.520;11.284;2023-08-07T07:10:23;4.07;;;1.97;;
15931;SDS011;8065;49.520;11.284;2023-08-07T07:12:52;2.83;;;2.13;;
15931;SDS011;8065;49.520;11.284;2023-08-07T07:15:20;3.70;;;1.87;;
15931;SDS011;8065;49.520;11.284;2023-08-07T07:17:48;2.53;;;1.83;;
15931;SDS011;8065;49.520;11.284;2023-08-07T07:20:17;5.00;;;2.20;;
15931;SDS011;8065;49.520;11.284;2023-08-07T07:22:48;2.40;;;1.93;;
15931;SDS011;8065;49.520;11.284;2023-08-07T07:25:16;1.87;;;1.43;;
15931;SDS011;8065;49.520;11.284;2023-08-07T07:27:44;2.10;;;1.90;;
15931;SDS011;8065;49.520;11.284;2023-08-07T07:30:13;4.13;;;1.90;;
15931;SDS011;8065;49.520;11.284;2023-08-07T07:32:41;3.97;;;2.17;;
15931;SDS011;8065;49.520;11.284;2023-08-07T07:35:09;3.90;;;1.80;;
15931;SDS011;8065;49.520;11.284;2023-08-07T07:37:38;5.83;;;2.30;;
15931;SDS011;8065;49.520;11.284;2023-08-07T07:40:09;2.47;;;2.03;;
15931;SDS011;8065;49.520;11.284;2023-08-07T07:42:38;3.40;;;1.90;;
15931;SDS011;8065;49.520;11.284;2023-08-07T07:45:07;2.90;;;1.90;;
15931;SDS011;8065;49.520;11.284;2023-08-07T07:47:35;3.53;;;2.00;;
15931;SDS011;8065;49.520;11.284;2023-08-07T07:50:04;5.57;;;2.10;;
15931;SDS011;8065;49.520;11.284;2023-08-07T07:52:34;5.10;;;2.33;;
15931;SDS011;8065;49.520;11.284;2023-08-07T07:55:02;2.33;;;2.13;;
15931;SDS011;8065;49.520;11.284;2023-08-07T07:57:33;4.00;;;2.13;;
15931;SDS011;8065;49.520;11.284;2023-08-07T08:00:02;5.47;;;2.10;;
15931;SDS011;8065;49.520;11.284;2023-08-07T08:02:35;3.40;;;2.03;;
15931;SDS011;8065;49.520;11.284;2023-08-07T08:05:03;5.10;;;2.20;;
15931;SDS011;8065;49.520;11.284;2023-08-07T08:07:32;4.10;;;1.87;;
15931;SDS011;8065;49.520;11.284;2023-08-07T08:10:01;4.27;;;2.20;;
15931;SDS011;8065;49.520;11.284;2023-08-07T08:12:29;4.37;;;2.00;;
15931;SDS011;8065;49.520;11.284;2023-08-07T08:15:00;2.23;;;1.90;;
15931;SDS011;8065;49.520;11.284;2023-08-07T08:17:29;3.13;;;2.23;;
15931;SDS011;8065;49.520;11.284;2023-08-07T08:19:57;3.87;;;2.53;;
15931;SDS011;8065;49.520;11.284;2023-08-07T08:22:26;4.73;;;2.30;;
15931;SDS011;8065;49.520;11.284;2023-08-07T08:24:54;5.73;;;2.00;;
15931;SDS011;8065;49.520;11.284;2023-08-07T08:27:22;3.80;;;2.33;;
15931;SDS011;8065;49.520;11.284;2023-08-07T08:29:51;5.93;;;2.30;;
15931;SDS011;8065;49.520;11.284;2023-08-07T08:32:21;5.37;;;2.40;;
15931;SDS011;8065;49.520;11.284;2023-08-07T08:34:50;3.63;;;2.30;;
15931;SDS011;8065;49.520;11.284;2023-08-07T08:37:18;3.03;;;2.13;;
15931;SDS011;8065;49.520;11.284;2023-08-07T08:39:46;4.90;;;2.30;;
15931;SDS011;8065;49.520;11.284;2023-08-07T08:42:14;4.40;;;2.40;;
15931;SDS011;8065;49.520;11.284;2023-08-07T08:44:44;3.97;;;2.27;;
15931;SDS011;8065;49.520;11.284;2023-08-07T08:47:19;3.77;;;2.30;;
15931;SDS011;8065;49.520;11.284;2023-08-07T08:49:54;3.47;;;2.13;;
15931;SDS011;8065;49.520;11.284;2023-08-07T08:52:28;4.57;;;2.30;;
15931;SDS011;8065;49.520;11.284;2023-08-07T08:54:58;5.03;;;2.70;;
15931;SDS011;8065;49.520;11.284;2023-08-07T08:57:27;4.43;;;2.70;;
15931;SDS011;8065;49.520;11.284;2023-08-07T08:59:56;3.43;;;2.40;;
15931;SDS011;8065;49.520;11.284;2023-08-07T09:02:28;4.03;;;2.40;;
15931;SDS011;8065;49.520;11.284;2023-08-07T09:04:56;3.10;;;2.30;;
15931;SDS011;8065;49.520;11.284;2023-08-07T09:07:25;3.70;;;2.40;;
15931;SDS011;8065;49.520;11.284;2023-08-07T09:09:55;6.50;;;2.30;;
15931;SDS011;8065;49.520;11.284;2023-08-07T09:12:25;3.43;;;2.40;;
15931;SDS011;8065;49.520;11.284;2023-08-07T09:14:57;4.13;;;2.27;;
15931;SDS011;8065;49.520;11.284;2023-08-07T09:17:29;4.33;;;2.23;;
15931;SDS011;8065;49.520;11.284;2023-08-07T09:20:01;4.40;;;2.17;;
15931;SDS011;8065;49.520;11.284;2023-08-07T09:22:29;5.43;;;2.33;;
15931;SDS011;8065;49.520;11.284;2023-08-07T09:24:58;3.17;;;2.50;;
15931;SDS011;8065;49.520;11.284;2023-08-07T09:27:27;3.30;;;2.50;;
15931;SDS011;8065;49.520;11.284;2023-08-07T09:29:55;5.43;;;2.43;;
15931;SDS011;8065;49.520;11.284;2023-08-07T09:32:24;3.30;;;2.00;;
15931;SDS011;8065;49.520;11.284;2023-08-07T09:34:55;4.53;;;2.33;;
15931;SDS011;8065;49.520;11.284;2023-08-07T09:37:24;5.47;;;2.30;;
15931;SDS011;8065;49.520;11.284;2023-08-07T09:39:52;4.23;;;2.07;;
15931;SDS011;8065;49.520;11.284;2023-08-07T09:42:20;4.77;;;2.37;;
15931;SDS011;8065;49.520;11.284;2023-08-07T09:44:49;2.83;;;2.07;;
15931;SDS011;8065;49.520;11.284;2023-08-07T09:47:17;2.50;;;2.10;;
15931;SDS011;8065;49.520;11.284;2023-08-07T09:49:47;5.73;;;2.60;;
15931;SDS011;8065;49.520;11.284;2023-08-07T09:52:18;3.03;;;1.93;;
15931;SDS011;8065;49.520;11.284;2023-08-07T09:54:47;3.93;;;2.10;;
15931;SDS011;8065;49.520;11.284;2023-08-07T09:57:15;2.90;;;2.03;;
15931;SDS011;8065;49.520;11.284;2023-08-07T09:59:45;4.07;;;2.20;;
15931;SDS011;8065;49.520;11.284;2023-08-07T10:02:18;2.00;;;1.70;;
15931;SDS011;8065;49.520;11.284;2023-08-07T10:04:50;2.07;;;1.87;;
15931;SDS011;8065;49.520;11.284;2023-08-07T10:07:23;3.97;;;1.87;;
15931;SDS011;8065;49.520;11.284;2023-08-07T10:09:51;3.00;;;2.00;;
15931;SDS011;8065;49.520;11.284;2023-08-07T10:12:20;3.83;;;1.90;;
15931;SDS011;8065;49.520;11.284;2023-08-07T10:14:49;2.93;;;1.80;;
15931;SDS011;8065;49.520;11.284;2023-08-07T10:17:19;4.10;;;1.90;;
15931;SDS011;8065;49.520;11.284;2023-08-07T10:19:50;2.80;;;2.20;;
15931;SDS011;8065;49.520;11.284;2023-08-07T10:22:19;2.93;;;2.07;;
15931;SDS011;8065;49.520;11.284;2023-08-07T10:24:50;2.70;;;1.90;;
15931;SDS011;8065;49.520;11.284;2023-08-07T10:27:21;3.70;;;2.07;;
15931;SDS011;8065;49.520;11.284;2023-08-07T10:29:51;5.67;;;2.23;;
15931;SDS011;8065;49.520;11.284;2023-08-07T10:32:23;4.10;;;1.90;;
15931;SDS011;8065;49.520;11.284;2023-08-07T10:34:53;2.33;;;1.90;;
15931;SDS011;8065;49.520;11.284;2023-08-07T10:37:31;2.90;;;2.10;;
15931;SDS011;8065;49.520;11.284;2023-08-07T10:40:03;3.73;;;1.87;;
15931;SDS011;8065;49.520;11.284;2023-08-07T10:45:18;2.97;;;1.97;;
15931;SDS011;8065;49.520;11.284;2023-08-07T10:47:56;2.80;;;1.90;;
15931;SDS011;8065;49.520;11.284;2023-08-07T10:50:28;3.57;;;2.13;;
15931;SDS011;8065;49.520;11.284;2023-08-07T10:52:59;2.13;;;1.80;;
15931;SDS011;8065;49.520;11.284;2023-08-07T10:55:33;3.07;;;2.20;;
15931;SDS011;8065;49.520;11.284;2023-08-07T10:58:20;3.90;;;2.30;;
15931;SDS011;8065;49.520;11.284;2023-08-07T11:00:51;5.70;;;2.00;;
15931;SDS011;8065;49.520;11.284;2023-08-07T11:03:25;2.63;;;1.97;;
15931;SDS011;8065;49.520;11.284;2023-08-07T11:05:57;4.37;;;2.20;;
15931;SDS011;8065;49.520;11.284;2023-08-07T11:08:26;2.87;;;1.80;;
15931;SDS011;8065;49.520;11.284;2023-08-07T11:10:56;1.73;;;1.63;;
15931;SDS011;8065;49.520;11.284;2023-08-07T11:13:31;2.43;;;1.90;;
15931;SDS011;8065;49.520;11.284;2023-08-07T11:16:00;2.20;;;2.00;;
15931;SDS011;8065;49.520;11.284;2023-08-07T11:18:30;4.80;;;2.13;;
15931;SDS011;8065;49.520;11.284;2023-08-07T11:21:00;3.30;;;2.07;;
15931;SDS011;8065;49.520;11.284;2023-08-07T11:23:29;2.30;;;2.10;;
15931;SDS011;8065;49.520;11.284;2023-08-07T11:26:00;5.10;;;1.70;;
15931;SDS011;8065;49.520;11.284;2023-08-07T11:28:28;3.50;;;2.00;;
15931;SDS011;8065;49.520;11.284;2023-08-07T11:30:57;3.57;;;2.77;;
15931;SDS011;8065;49.520;11.284;2023-08-07T11:33:26;6.30;;;3.13;;
15931;SDS011;8065;49.520;11.284;2023-08-07T11:35:56;3.97;;;2.63;;
15931;SDS011;8065;49.520;11.284;2023-08-07T11:38:31;3.67;;;2.70;;
15931;SDS011;8065;49.520;11.284;2023-08-07T11:41:04;4.30;;;2.40;;
15931;SDS011;8065;49.520;11.284;2023-08-07T11:43:34;2.50;;;1.93;;
15931;SDS011;8065;49.520;11.284;2023-08-07T11:46:03;2.57;;;2.37;;
15931;SDS011;8065;49.520;11.284;2023-08-07T11:48:34;2.13;;;1.87;;
15931;SDS011;8065;49.520;11.284;2023-08-07T11:51:04;3.03;;;2.00;;
15931;SDS011;8065;49.520;11.284;2023-08-07T11:53:34;3.93;;;2.10;;
15931;SDS011;8065;49.520;11.284;2023-08-07T11:56:07;4.23;;;2.17;;
15931;SDS011;8065;49.520;11.284;2023-08-07T11:58:39;2.53;;;2.17;;
15931;SDS011;8065;49.520;11.284;2023-08-07T12:01:11;4.73;;;2.27;;
15931;SDS011;8065;49.520;11.284;2023-08-07T12:03:42;2.23;;;2.00;;
15931;SDS011;8065;49.520;11.284;2023-08-07T12:06:18;3.30;;;2.40;;
15931;SDS011;8065;49.520;11.284;2023-08-07T12:08:48;2.90;;;2.00;;
15931;SDS011;8065;49.520;11.284;2023-08-07T12:11:21;3.37;;;2.17;;
15931;SDS011;8065;49.520;11.284;2023-08-07T12:13:49;2.97;;;1.87;;
15931;SDS011;8065;49.520;11.284;2023-08-07T12:16:18;2.90;;;1.90;;
15931;SDS011;8065;49.520;11.284;2023-08-07T12:18:47;3.70;;;2.00;;
15931;SDS011;8065;49.520;11.284;2023-08-07T12:21:16;3.23;;;2.13;;
15931;SDS011;8065;49.520;11.284;2023-08-07T12:23:48;3.17;;;1.93;;
15931;SDS011;8065;49.520;11.284;2023-08-07T12:26:17;4.90;;;2.20;;
15931;SDS011;8065;49.520;11.284;2023-08-07T12:28:48;2.90;;;1.67;;
15931;SDS011;8065;49.520;11.284;2023-08-07T12:31:17;2.97;;;1.73;;
15931;SDS011;8065;49.520;11.284;2023-08-07T12:33:45;2.73;;;1.83;;
15931;SDS011;8065;49.520;11.284;2023-08-07T12:36:14;2.47;;;1.90;;
15931;SDS011;8065;49.520;11.284;2023-08-07T12:38:42;1.80;;;1.70;;
15931;SDS011;8065;49.520;11.284;2023-08-07T12:41:10;1.70;;;1.50;;
15931;SDS011;8065;49.520;11.284;2023-08-07T12:43:41;2.57;;;1.67;;
15931;SDS011;8065;49.520;11.284;2023-08-07T12:46:10;2.30;;;1.70;;
15931;SDS011;8065;49.520;11.284;2023-08-07T12:48:38;6.00;;;2.07;;
15931;SDS011;8065;49.520;11.284;2023-08-07T12:51:06;1.80;;;1.70;;
15931;SDS011;8065;49.520;11.284;2023-08-07T12:53:35;1.63;;;1.50;;
15931;SDS011;8065;49.520;11.284;2023-08-07T12:56:03;3.07;;;1.60;;
15931;SDS011;8065;49.520;11.284;2023-08-07T12:58:31;1.50;;;1.30;;
15931;SDS011;8065;49.520;11.284;2023-08-07T13:01:03;2.30;;;1.77;;
15931;SDS011;8065;49.520;11.284;2023-08-07T13:03:32;2.17;;;1.47;;
15931;SDS011;8065;49.520;11.284;2023-08-07T13:06:00;1.50;;;1.40;;
15931;SDS011;8065;49.520;11.284;2023-08-07T13:08:31;1.47;;;1.37;;
15931;SDS011;8065;49.520;11.284;2023-08-07T13:11:00;2.60;;;1.40;;
15931;SDS011;8065;49.520;11.284;2023-08-07T13:13:28;2.83;;;1.43;;
15931;SDS011;8065;49.520;11.284;2023-08-07T13:15:56;3.57;;;1.33;;
15931;SDS011;8065;49.520;11.284;2023-08-07T13:18:27;1.70;;;1.40;;
15931;SDS011;8065;49.520;11.284;2023-08-07T13:20:55;2.37;;;1.73;;
15931;SDS011;8065;49.520;11.284;2023-08-07T13:23:24;1.57;;;1.30;;
15931;SDS011;8065;49.520;11.284;2023-08-07T13:25:52;2.30;;;1.40;;
15931;SDS011;8065;49.520;11.284;2023-08-07T13:28:21;3.70;;;1.70;;
15931;SDS011;8065;49.520;11.284;2023-08-07T13:30:49;1.77;;;1.67;;
15931;SDS011;8065;49.520;11.284;2023-08-07T13:33:19;2.20;;;1.50;;
15931;SDS011;8065;49.520;11.284;2023-08-07T13:35:50;2.47;;;1.53;;
15931;SDS011;8065;49.520;11.284;2023-08-07T13:38:18;1.70;;;1.60;;
15931;SDS011;8065;49.520;11.284;2023-08-07T13:40:46;3.13;;;1.83;;
15931;SDS011;8065;49.520;11.284;2023-08-07T13:43:16;1.43;;;1.33;;
15931;SDS011;8065;49.520;11.284;2023-08-07T13:45:44;3.10;;;1.70;;
15931;SDS011;8065;49.520;11.284;2023-08-07T13:48:12;1.60;;;1.50;;
15931;SDS011;8065;49.520;11.284;2023-08-07T13:50:41;1.77;;;1.67;;
15931;SDS011;8065;49.520;11.284;2023-08-07T13:53:11;2.07;;;1.87;;
15931;SDS011;8065;49.520;11.284;2023-08-07T13:55:40;3.10;;;1.87;;
15931;SDS011;8065;49.520;11.284;2023-08-07T13:58:08;2.13;;;1.60;;
15931;SDS011;8065;49.520;11.284;2023-08-07T14:00:36;2.13;;;1.50;;
15931;SDS011;8065;49.520;11.284;2023-08-07T14:03:05;2.07;;;1.73;;
15931;SDS011;8065;49.520;11.284;2023-08-07T14:05:33;2.20;;;1.70;;
15931;SDS011;8065;49.520;11.284;2023-08-07T14:08:03;1.70;;;1.60;;
15931;SDS011;8065;49.520;11.284;2023-08-07T14:10:34;1.60;;;1.50;;
15931;SDS011;8065;49.520;11.284;2023-08-07T14:13:05;2.30;;;1.63;;
15931;SDS011;8065;49.520;11.284;2023-08-07T14:15:34;2.30;;;1.50;;
15931;SDS011;8065;49.520;11.284;2023-08-07T14:18:03;2.73;;;1.53;;
15931;SDS011;8065;49.520;11.284;2023-08-07T14:20:31;2.67;;;1.50;;
15931;SDS011;8065;49.520;11.284;2023-08-07T14:22:59;2.70;;;1.53;;
15931;SDS011;8065;49.520;11.284;2023-08-07T14:25:28;4.00;;;1.60;;
15931;SDS011;8065;49.520;11.284;2023-08-07T14:27:58;1.93;;;1.70;;
15931;SDS011;8065;49.520;11.284;2023-08-07T14:30:27;3.23;;;2.07;;
15931;SDS011;8065;49.520;11.284;2023-08-07T14:32:55;2.27;;;2.00;;
15931;SDS011;8065;49.520;11.284;2023-08-07T14:35:23;2.83;;;1.77;;
15931;SDS011;8065;49.520;11.284;2023-08-07T14:37:52;2.17;;;1.90;;
15931;SDS011;8065;49.520;11.284;2023-08-07T14:40:20;1.60;;;1.50;;
15931;SDS011;8065;49.520;11.284;2023-08-07T14:42:49;1.90;;;1.70;;
15931;SDS011;8065;49.520;11.284;2023-08-07T14:45:20;6.03;;;2.23;;
15931;SDS011;8065;49.520;11.284;2023-08-07T14:47:49;3.70;;;1.77;;
15931;SDS011;8065;49.520;11.284;2023-08-07T14:50:17;2.07;;;1.80;;
15931;SDS011;8065;49.520;11.284;2023-08-07T14:52:45;2.37;;;1.97;;
15931;SDS011;8065;49.520;11.284;2023-08-07T14:55:13;3.83;;;2.23;;
15931;SDS011;8065;49.520;11.284;2023-08-07T14:57:42;6.33;;;2.60;;
15931;SDS011;8065;49.520;11.284;2023-08-07T15:00:11;3.13;;;2.40;;
15931;SDS011;8065;49.520;11.284;2023-08-07T15:02:44;2.53;;;2.20;;